createdAt,value
2023-04-14T00:02:49.100Z,6.37
2023-04-14T00:05:55.072Z,6.43
2023-04-14T00:09:02.005Z,6.38
2023-04-14T00:12:11.256Z,6.32
2023-04-14T00:15:27.362Z,6.24
2023-04-14T00:18:33.376Z,6.31
2023-04-14T00:21:41.843Z,6.26
2023-04-14T00:24:48.222Z,6.15
2023-04-14T00:28:04.254Z,6.30
2023-04-14T00:31:10.231Z,6.38
2023-04-14T00:34:17.154Z,6.29
2023-04-14T00:37:26.477Z,6.33
2023-04-14T00:40:33.891Z,6.19
2023-04-14T00:43:42.531Z,6.24
2023-04-14T00:46:49.539Z,6.29
2023-04-14T00:49:55.573Z,6.27
2023-04-14T00:53:02.551Z,6.24
2023-04-14T00:56:09.731Z,6.26
2023-04-14T00:59:20.846Z,6.33
2023-04-14T01:02:32.575Z,6.39
2023-04-14T01:05:39.545Z,6.30
2023-04-14T01:08:45.830Z,6.39
2023-04-14T01:12:24.341Z,6.40
2023-04-14T01:15:47.002Z,6.37
2023-04-14T01:19:32.411Z,6.39
2023-04-14T01:22:50.680Z,6.53
2023-04-14T01:26:21.472Z,6.50
2023-04-14T01:29:56.647Z,6.49
2023-04-14T01:33:15.032Z,6.57
2023-04-14T01:36:36.522Z,6.49
2023-04-14T01:39:50.458Z,6.50
2023-04-14T01:43:07.117Z,6.58
2023-04-14T01:46:25.809Z,6.62
2023-04-14T01:49:41.388Z,6.72
2023-04-14T01:52:51.743Z,6.74
2023-04-14T01:56:02.478Z,6.71
2023-04-14T01:59:17.556Z,6.59
2023-04-14T02:02:32.344Z,6.63
2023-04-14T02:05:45.260Z,6.55
2023-04-14T02:08:54.326Z,6.42
2023-04-14T02:12:08.622Z,6.23
2023-04-14T02:15:20.228Z,6.13
2023-04-14T02:18:26.861Z,6.05
2023-04-14T02:21:38.963Z,5.99
2023-04-14T02:24:44.959Z,6.07
2023-04-14T02:28:05.103Z,6.10
2023-04-14T02:31:20.614Z,6.20
2023-04-14T02:34:34.337Z,6.12
2023-04-14T02:37:54.142Z,6.03
2023-04-14T02:41:11.317Z,5.89
2023-04-14T02:44:24.532Z,5.94
2023-04-14T02:47:38.471Z,6.10
2023-04-14T02:50:50.702Z,6.25
2023-04-14T02:54:12.343Z,6.12
2023-04-14T02:57:24.391Z,6.12
2023-04-14T03:00:33.342Z,6.01
2023-04-14T03:03:43.169Z,5.96
2023-04-14T03:06:52.886Z,6.00
2023-04-14T03:10:02.622Z,6.03
2023-04-14T03:13:11.803Z,6.00
2023-04-14T03:16:33.477Z,5.98
2023-04-14T03:19:45.339Z,5.96
2023-04-14T03:22:58.043Z,5.98
2023-04-14T03:26:09.789Z,6.08
2023-04-14T03:29:22.286Z,6.17
2023-04-14T03:32:42.058Z,6.19
2023-04-14T03:35:57.598Z,6.23
2023-04-14T03:39:08.581Z,6.06
2023-04-14T03:42:22.292Z,5.95
2023-04-14T03:45:43.585Z,5.99
2023-04-14T03:48:54.897Z,6.04
2023-04-14T03:52:09.977Z,5.98
2023-04-14T03:55:23.519Z,6.01
2023-04-14T03:58:37.526Z,5.92
2023-04-14T04:01:46.476Z,5.94
2023-04-14T04:04:54.938Z,5.98
2023-04-14T04:08:06.408Z,5.88
2023-04-14T04:11:19.101Z,5.80
2023-04-14T04:14:38.487Z,5.76
2023-04-14T04:17:55.966Z,5.66
2023-04-14T04:21:04.573Z,5.64
2023-04-14T04:24:15.310Z,5.62
2023-04-14T04:27:28.112Z,5.67
2023-04-14T04:30:50.628Z,5.74
2023-04-14T04:33:58.461Z,5.89
2023-04-14T04:37:07.056Z,6.01
2023-04-14T04:40:15.197Z,6.10
2023-04-14T04:43:22.686Z,6.04
2023-04-14T04:46:53.374Z,6.13
2023-04-14T04:50:03.862Z,6.15
2023-04-14T04:53:09.709Z,6.08
2023-04-14T04:56:16.598Z,6.22
2023-04-14T04:59:22.760Z,6.30
2023-04-14T05:02:32.416Z,6.27
2023-04-14T05:05:41.006Z,6.36
2023-04-14T05:08:47.780Z,6.41
2023-04-14T05:11:53.947Z,6.47
2023-04-14T05:15:00.723Z,6.45
2023-04-14T05:18:09.307Z,6.37
2023-04-14T05:21:18.447Z,6.53
2023-04-14T05:24:24.365Z,6.93
2023-04-14T05:27:31.690Z,6.57
2023-04-14T05:30:37.640Z,6.34
2023-04-14T05:33:46.957Z,6.32
2023-04-14T05:36:53.322Z,6.43
2023-04-14T05:40:00.075Z,6.52
2023-04-14T05:43:06.244Z,6.25
2023-04-14T05:46:13.077Z,6.42
2023-04-14T05:49:21.739Z,6.66
2023-04-14T05:52:31.929Z,6.79
2023-04-14T05:55:37.934Z,6.50
2023-04-14T05:58:44.702Z,6.33
2023-04-14T06:01:50.694Z,6.50
2023-04-14T06:05:00.099Z,6.59
2023-04-14T06:08:06.467Z,6.49
2023-04-14T06:11:14.446Z,6.19
2023-04-14T06:14:20.482Z,6.33
2023-04-14T06:17:28.433Z,6.27
2023-04-14T06:20:38.438Z,6.50
2023-04-14T06:23:45.263Z,6.67
2023-04-14T06:26:51.395Z,6.73
2023-04-14T06:29:58.429Z,7.14
2023-04-14T06:33:05.130Z,7.11
2023-04-14T06:36:17.245Z,7.12
2023-04-14T06:39:23.206Z,7.17
2023-04-14T06:42:29.981Z,7.02
2023-04-14T06:45:36.440Z,7.08
2023-04-14T06:48:46.403Z,6.98
2023-04-14T06:51:54.961Z,7.22
2023-04-14T06:55:02.324Z,7.38
2023-04-14T06:58:08.382Z,7.39
2023-04-14T07:01:15.267Z,7.48
2023-04-14T07:04:21.283Z,7.34
2023-04-14T07:07:30.830Z,7.44
2023-04-14T07:10:36.936Z,7.56
2023-04-14T07:13:43.900Z,7.84
2023-04-14T07:16:50.019Z,7.85
2023-04-14T07:19:58.577Z,7.64
2023-04-14T07:23:07.109Z,7.78
2023-04-14T07:26:13.963Z,7.70
2023-04-14T07:29:19.989Z,7.85
2023-04-14T07:32:27.054Z,8.06
2023-04-14T07:35:34.162Z,8.42
2023-04-14T07:38:44.106Z,8.33
2023-04-14T07:41:50.058Z,8.38
2023-04-14T07:44:56.951Z,8.52
2023-04-14T07:48:03.144Z,8.60
2023-04-14T07:51:12.449Z,8.58
2023-04-14T07:54:21.186Z,8.93
2023-04-14T07:57:28.228Z,8.92
2023-04-14T08:00:34.274Z,8.96
2023-04-14T08:03:42.938Z,9.06
2023-04-14T08:06:51.495Z,8.96
2023-04-14T08:10:01.126Z,8.79
2023-04-14T08:13:07.198Z,8.86
2023-04-14T08:16:14.114Z,8.90
2023-04-14T08:19:20.047Z,8.98
2023-04-14T08:22:26.981Z,9.13
2023-04-14T08:25:35.749Z,9.36
2023-04-14T08:28:42.686Z,9.58
2023-04-14T08:31:48.748Z,9.83
2023-04-14T08:35:39.929Z,10.05
2023-04-14T08:38:21.885Z,10.39
2023-04-14T08:41:36.632Z,10.26
2023-04-14T08:44:42.547Z,10.54
2023-04-14T08:47:51.554Z,10.70
2023-04-14T08:51:09.829Z,10.45
2023-04-14T08:54:18.452Z,10.52
2023-04-14T08:57:30.680Z,10.48
2023-04-14T09:00:39.694Z,10.60
2023-04-14T09:03:47.938Z,10.61
2023-04-14T09:06:56.205Z,10.61
2023-04-14T09:10:09.948Z,10.73
2023-04-14T09:13:23.742Z,10.85
2023-04-14T09:16:32.246Z,11.15
2023-04-14T09:20:35.032Z,11.27
2023-04-14T09:23:06.397Z,11.24
2023-04-14T09:26:14.788Z,11.27
2023-04-14T09:29:23.342Z,11.05
2023-04-14T09:32:30.180Z,10.92
2023-04-14T09:35:54.150Z,11.08
2023-04-14T09:39:00.935Z,11.06
2023-04-14T09:42:08.160Z,11.20
2023-04-14T09:45:17.542Z,11.29
2023-04-14T09:48:26.797Z,11.33
2023-04-14T09:51:35.307Z,11.34
2023-04-14T09:54:44.298Z,11.41
2023-04-14T09:57:52.207Z,11.51
2023-04-14T10:01:00.745Z,11.36
2023-04-14T10:04:08.196Z,11.41
2023-04-14T10:07:14.149Z,11.35
2023-04-14T10:10:28.279Z,11.31
2023-04-14T10:13:36.424Z,11.21
2023-04-14T10:16:46.185Z,11.40
2023-04-14T10:19:53.019Z,11.60
2023-04-14T10:23:00.991Z,11.90
2023-04-14T10:26:08.578Z,12.15
2023-04-14T10:29:19.492Z,12.23
2023-04-14T10:32:33.648Z,12.30
2023-04-14T10:35:48.726Z,12.51
2023-04-14T10:39:05.113Z,12.59
2023-04-14T10:42:12.877Z,12.84
2023-04-14T10:45:19.891Z,12.95
2023-04-14T10:48:34.983Z,13.07
2023-04-14T10:51:41.851Z,13.44
2023-04-14T10:55:01.323Z,13.64
2023-04-14T10:58:09.345Z,13.31
2023-04-14T11:01:31.870Z,13.36
2023-04-14T11:05:12.099Z,13.42
2023-04-14T11:08:21.281Z,13.08
2023-04-14T11:11:31.951Z,13.27
2023-04-14T11:14:39.500Z,13.54
2023-04-14T11:17:47.105Z,13.47
2023-04-14T11:21:04.645Z,13.76
2023-04-14T11:24:10.887Z,13.75
2023-04-14T11:27:18.350Z,14.06
2023-04-14T11:30:25.403Z,14.13
2023-04-14T11:33:34.436Z,13.88
2023-04-14T11:36:43.215Z,13.99
2023-04-14T11:39:50.146Z,14.16
2023-04-14T11:42:58.347Z,14.19
2023-04-14T11:46:09.564Z,14.50
2023-04-14T11:49:15.615Z,14.20
2023-04-14T11:52:26.245Z,14.55
2023-04-14T11:55:33.371Z,14.56
2023-04-14T11:58:40.215Z,14.15
2023-04-14T12:01:46.315Z,14.07
2023-04-14T12:04:54.731Z,14.17
2023-04-14T12:08:07.880Z,13.99
2023-04-14T12:11:19.600Z,14.12
2023-04-14T12:14:25.992Z,14.06
2023-04-14T12:17:34.147Z,14.43
2023-04-14T12:20:48.154Z,14.51
2023-04-14T12:23:58.357Z,14.55
2023-04-14T12:27:06.249Z,14.82
2023-04-14T12:30:14.502Z,14.86
2023-04-14T12:33:20.707Z,14.94
2023-04-14T12:36:45.188Z,14.70
2023-04-14T12:40:01.271Z,14.45
2023-04-14T12:43:08.719Z,14.44
2023-04-14T12:46:14.878Z,14.05
2023-04-14T12:49:39.366Z,14.00
2023-04-14T12:52:46.020Z,13.73
2023-04-14T12:56:09.557Z,13.64
2023-04-14T12:59:15.678Z,13.61
2023-04-14T13:02:22.923Z,13.78
2023-04-14T13:05:29.154Z,13.93
2023-04-14T13:08:36.474Z,14.16
2023-04-14T13:11:44.947Z,14.24
2023-04-14T13:14:51.936Z,14.33
2023-04-14T13:17:58.078Z,14.38
2023-04-14T13:21:05.291Z,14.44
2023-04-14T13:24:11.532Z,14.52
2023-04-14T13:27:21.782Z,14.61
2023-04-14T13:30:27.729Z,14.43
2023-04-14T13:33:36.791Z,14.31
2023-04-14T13:36:42.800Z,14.44
2023-04-14T13:39:49.836Z,14.21
2023-04-14T13:42:58.801Z,14.20
2023-04-14T13:46:05.763Z,14.08
2023-04-14T13:49:11.683Z,14.13
2023-04-14T13:52:18.728Z,14.01
2023-04-14T13:55:39.693Z,14.02
2023-04-14T13:59:03.600Z,14.06
2023-04-14T14:02:10.743Z,14.01
2023-04-14T14:05:19.057Z,13.92
2023-04-14T14:08:26.382Z,13.97
2023-04-14T14:11:32.321Z,13.90
2023-04-14T14:14:41.888Z,13.70
2023-04-14T14:17:48.083Z,13.67
2023-04-14T14:20:54.894Z,13.76
2023-04-14T14:24:01.526Z,13.82
2023-04-14T14:27:08.651Z,13.92
2023-04-14T14:30:18.250Z,13.92
2023-04-14T14:33:25.699Z,13.75
2023-04-14T14:36:33.488Z,13.81
2023-04-14T14:39:40.237Z,13.68
2023-04-14T14:42:46.244Z,13.66
2023-04-14T14:45:55.878Z,13.74
2023-04-14T14:49:01.877Z,13.60
2023-04-14T14:52:08.845Z,13.59
2023-04-14T14:55:14.785Z,13.55
2023-04-14T14:58:21.831Z,13.62
2023-04-14T15:01:30.563Z,13.59
2023-04-14T15:04:37.373Z,13.29
2023-04-14T15:07:43.356Z,13.22
2023-04-14T15:10:50.037Z,13.21
2023-04-14T15:13:55.961Z,13.20
2023-04-14T15:17:05.378Z,13.07
2023-04-14T15:20:13.388Z,12.83
2023-04-14T15:23:20.170Z,12.89
2023-04-14T15:26:26.115Z,12.92
2023-04-14T15:29:39.763Z,12.78
2023-04-14T15:32:48.705Z,12.71
2023-04-14T15:35:55.804Z,12.71
2023-04-14T15:39:01.978Z,12.53
2023-04-14T15:42:08.734Z,12.45
2023-04-14T15:45:15.393Z,12.36
2023-04-14T15:48:24.732Z,12.32
2023-04-14T15:51:30.701Z,12.34
2023-04-14T15:54:37.712Z,12.27
2023-04-14T15:57:44.400Z,12.33
2023-04-14T16:00:51.310Z,12.30
2023-04-14T16:03:59.913Z,12.34
2023-04-14T16:07:15.141Z,12.40
2023-04-14T16:10:21.236Z,12.34
2023-04-14T16:13:27.990Z,12.40
2023-04-14T16:16:34.246Z,12.37
2023-04-14T16:19:45.037Z,12.40
2023-04-14T16:22:52.724Z,12.34
2023-04-14T16:26:00.022Z,12.22
2023-04-14T16:29:06.289Z,12.15
2023-04-14T16:32:13.327Z,11.92
2023-04-14T16:35:22.115Z,11.60
2023-04-14T16:38:32.086Z,11.31
2023-04-14T16:41:37.993Z,11.09
2023-04-14T16:44:44.795Z,10.92
2023-04-14T16:47:50.886Z,10.74
2023-04-14T16:51:00.743Z,10.52
2023-04-14T16:54:13.313Z,10.35
2023-04-14T16:57:26.957Z,10.24
2023-04-14T17:00:36.009Z,10.14
2023-04-14T17:03:43.014Z,10.02
2023-04-14T17:06:55.356Z,9.99
2023-04-14T17:10:02.256Z,9.98
2023-04-14T17:13:18.381Z,9.92
2023-04-14T17:16:29.034Z,9.98
2023-04-14T17:19:36.533Z,10.00
2023-04-14T17:22:48.800Z,9.94
2023-04-14T17:25:56.582Z,10.00
2023-04-14T17:29:03.873Z,10.06
2023-04-14T17:32:25.295Z,9.99
2023-04-14T17:35:35.148Z,10.01
2023-04-14T17:38:54.645Z,9.95
2023-04-14T17:42:02.565Z,9.89
2023-04-14T17:45:25.983Z,9.78
2023-04-14T17:48:33.631Z,9.66
2023-04-14T17:51:57.463Z,9.53
2023-04-14T17:55:09.210Z,9.39
2023-04-14T17:58:16.176Z,9.28
2023-04-14T18:01:24.377Z,9.11
2023-04-14T18:04:30.517Z,9.07
2023-04-14T18:07:38.270Z,8.94
2023-04-14T18:10:49.920Z,8.93
2023-04-14T18:13:57.425Z,8.90
2023-04-14T18:17:09.968Z,8.72
2023-04-14T18:20:19.021Z,8.76
2023-04-14T18:23:25.194Z,8.88
2023-04-14T18:26:34.856Z,8.88
2023-04-14T18:29:41.624Z,8.87
2023-04-14T18:32:48.757Z,8.89
2023-04-14T18:35:55.566Z,8.96
2023-04-14T18:39:02.985Z,8.96
2023-04-14T18:42:15.543Z,9.03
2023-04-14T18:45:22.672Z,9.13
2023-04-14T18:48:29.227Z,9.16
2023-04-14T18:51:36.486Z,9.30
2023-04-14T18:54:43.172Z,9.34
2023-04-14T18:57:58.601Z,9.38
2023-04-14T19:01:04.883Z,9.50
2023-04-14T19:04:12.013Z,9.59
2023-04-14T19:07:18.646Z,9.62
2023-04-14T19:10:25.901Z,9.67
2023-04-14T19:13:35.114Z,9.71
2023-04-14T19:16:41.907Z,9.76
2023-04-14T19:19:51.594Z,9.74
2023-04-14T19:23:01.022Z,9.78
2023-04-14T19:26:08.642Z,9.82
2023-04-14T19:29:18.782Z,9.77
2023-04-14T19:32:24.941Z,9.87
2023-04-14T19:35:36.862Z,9.76
2023-04-14T19:38:43.343Z,9.71
2023-04-14T19:41:50.875Z,9.75
2023-04-14T19:44:59.561Z,9.77
2023-04-14T19:48:19.878Z,9.76
2023-04-14T19:51:30.885Z,9.77
2023-04-14T19:54:38.187Z,9.74
2023-04-14T19:57:44.092Z,9.72
2023-04-14T20:00:57.588Z,9.70
2023-04-14T20:04:10.715Z,9.58
2023-04-14T20:07:19.464Z,9.54
2023-04-14T20:10:27.755Z,9.61
2023-04-14T20:13:35.893Z,9.57
2023-04-14T20:16:46.346Z,9.65
2023-04-14T20:19:53.514Z,9.67
2023-04-14T20:23:01.693Z,9.62
2023-04-14T20:26:08.717Z,9.66
2023-04-14T20:29:16.281Z,9.58
2023-04-14T20:32:25.879Z,9.59
2023-04-14T20:35:33.008Z,9.55
2023-04-14T20:38:40.248Z,9.50
2023-04-14T20:41:46.724Z,9.49
2023-04-14T20:44:53.674Z,9.51
2023-04-14T20:48:03.011Z,9.43
2023-04-14T20:51:09.957Z,9.50
2023-04-14T20:54:16.013Z,9.43
2023-04-14T20:57:22.960Z,9.41
2023-04-14T21:00:29.629Z,9.43
2023-04-14T21:03:39.693Z,9.43
2023-04-14T21:06:46.230Z,9.50
2023-04-14T21:09:53.147Z,9.48
2023-04-14T21:15:29.552Z,9.48
2023-04-14T21:16:26.314Z,9.44
2023-04-14T21:19:34.923Z,9.36
2023-04-14T21:22:41.679Z,9.37
2023-04-14T21:25:48.413Z,9.35
2023-04-14T21:28:55.171Z,9.43
2023-04-14T21:32:01.508Z,9.51
2023-04-14T21:35:12.516Z,9.41
2023-04-14T21:38:18.520Z,9.37
2023-04-14T21:41:25.515Z,9.29
2023-04-14T21:44:32.026Z,9.31
2023-04-14T21:47:38.814Z,9.33
2023-04-14T21:50:47.632Z,9.29
2023-04-14T21:53:54.439Z,9.27
2023-04-14T21:57:01.288Z,9.23
2023-04-14T22:00:13.607Z,9.23
2023-04-14T22:03:23.012Z,9.14
2023-04-14T22:06:32.661Z,9.09
2023-04-14T22:09:38.678Z,9.07
2023-04-14T22:12:46.041Z,8.92
2023-04-14T22:15:52.212Z,8.90
2023-04-14T22:18:59.589Z,8.95
2023-04-14T22:22:08.768Z,8.83
2023-04-14T22:25:15.635Z,8.84
2023-04-14T22:28:21.958Z,8.83
2023-04-14T22:31:28.720Z,8.82
2023-04-14T22:34:34.637Z,8.77
2023-04-14T22:37:44.013Z,8.74
2023-04-14T22:40:52.254Z,8.74
2023-04-14T22:43:59.353Z,8.61
2023-04-14T22:47:06.470Z,8.54
2023-04-14T22:50:14.124Z,8.59
2023-04-14T22:53:22.905Z,8.50
2023-04-14T22:56:31.187Z,8.41
2023-04-14T22:59:37.399Z,8.41
2023-04-14T23:02:44.283Z,8.43
2023-04-14T23:05:52.073Z,8.39
2023-04-14T23:09:01.858Z,8.38
2023-04-14T23:12:08.623Z,8.36
2023-04-14T23:15:15.411Z,8.26
2023-04-14T23:18:21.699Z,8.31
2023-04-14T23:21:28.549Z,8.25
2023-04-14T23:24:37.531Z,8.24
2023-04-14T23:27:44.218Z,8.19
2023-04-14T23:30:50.065Z,8.24
2023-04-14T23:33:56.987Z,8.26
2023-04-14T23:37:02.891Z,8.16
2023-04-14T23:40:14.941Z,8.10
2023-04-14T23:43:22.032Z,8.12
2023-04-14T23:46:29.310Z,8.09
2023-04-14T23:49:35.790Z,8.04
2023-04-14T23:52:42.984Z,8.01
2023-04-14T23:55:51.822Z,7.96
2023-04-14T23:58:58.916Z,7.95
